This is the latest recevied weather packets stored in our database for station/object EA1EXV-11. If no packets are shown the sender has not sent any weather packets the latest 10 day(s).
| Time | Temp. | Humidity | Pressure | Rain* | Wind** | Luminosity | Snow |
|---|---|---|---|---|---|---|---|
| 1778189740 | 11.67° C | 70% | 1011.3 hPa | - | - | - | - |
| 1778188840 | 12.22° C | 69% | 1011.3 hPa | - | - | - | - |
| 1778187940 | 12.22° C | 68% | 1011.4 hPa | - | - | - | - |
| 1778187040 | 12.78° C | 67% | 1011.3 hPa | - | - | - | - |
| 1778186140 | 12.78° C | 66% | 1011.1 hPa | - | - | - | - |
| 1778185239 | 12.78° C | 65% | 1010.8 hPa | - | - | - | - |
| 1778184339 | 13.89° C | 63% | 1010.8 hPa | - | - | - | - |
| 1778183439 | 15.56° C | 61% | 1010.7 hPa | - | - | - | - |
| 1778182539 | 16.11° C | 59% | 1010.7 hPa | - | - | - | - |
| 1778181639 | 17.22° C | 56% | 1010.6 hPa | - | - | - | - |
| 1778180739 | 18.33° C | 53% | 1010.7 hPa | - | - | - | - |
| 1778179839 | 18.89° C | 52% | 1010.7 hPa | - | - | - | - |
| 1778178939 | 20° C | 50% | 1010.7 hPa | - | - | - | - |
| 1778178039 | 22.78° C | 47% | 1010.7 hPa | - | - | - | - |
| 1778177139 | 23.33° C | 46% | 1010.6 hPa | - | - | - | - |
| 1778176238 | 22.22° C | 47% | 1010.5 hPa | - | - | - | - |
| 1778175338 | 22.78° C | 45% | 1010.2 hPa | - | - | - | - |
| 1778174438 | 26.67° C | 43% | 1010.4 hPa | - | - | - | - |
| 1778173538 | 26.67° C | 44% | 1010.7 hPa | - | - | - | - |
| 1778172638 | 25.56° C | 47% | 1011 hPa | - | - | - | - |
| 1778171738 | 21.11° C | 51% | 1011.1 hPa | - | - | - | - |
| 1778170837 | 20.56° C | 52% | 1010.9 hPa | - | - | - | - |
| 1778169937 | 21.67° C | 50% | 1010.9 hPa | - | - | - | - |
| 1778169037 | 23.33° C | 49% | 1010.7 hPa | - | - | - | - |
| 1778168137 | 20.56° C | 50% | 1010.7 hPa | - | - | - | - |
* Rain since midnight (hover to see other rain measurements)
** Current wind speed in m/s (hover to see current wind gust speed)